Time;durP1;ratioP1;P1;durP2;ratioP2;P2;SDS_P1;SDS_P2;PMS_P1;PMS_P2;Temp;Humidity;BMP_temperature;BMP_pressure;BME280_temperature;BME280_humidity;BME280_pressure;Samples;Min_cycle;Max_cycle;Signal;HPM_P1;HPM_P2
2022/07/31 00:01:20;;;;;;;2.47;2.27;;;;;;;25.06;63.65;97718.66;5047190;28;20236;-31
2022/07/31 00:03:46;;;;;;;2.47;2.27;;;;;;;25.03;63.42;97716.03;5046331;28;20239;-31
2022/07/31 00:06:13;;;;;;;2.63;2.43;;;;;;;25.05;63.71;97719.47;5050896;28;20224;-31
2022/07/31 00:08:39;;;;;;;2.17;2.00;;;;;;;25.06;63.38;97726.38;5052684;28;20331;-31
2022/07/31 00:11:06;;;;;;;2.47;2.30;;;;;;;25.04;63.30;97715.19;5051461;28;20320;-31
2022/07/31 00:13:33;;;;;;;2.70;2.50;;;;;;;25.06;63.57;97721.22;5054617;28;20248;-31
2022/07/31 00:16:19;;;;;;;2.47;2.27;;;;;;;25.05;63.76;97722.03;5045338;28;20208;-31
2022/07/31 00:18:46;;;;;;;2.47;2.27;;;;;;;24.98;63.38;97703.91;5048300;28;20653;-31
2022/07/31 00:21:12;;;;;;;2.20;2.10;;;;;;;25.06;63.74;97720.34;5048564;28;20225;-31
2022/07/31 00:23:39;;;;;;;2.37;2.23;;;;;;;25.05;63.79;97706.63;5042355;28;20680;-31
2022/07/31 00:26:06;;;;;;;2.47;2.30;;;;;;;25.05;63.68;97705.78;5047980;28;20725;-31
2022/07/31 00:28:33;;;;;;;2.73;2.53;;;;;;;25.05;63.62;97706.63;5049594;28;20240;-31
2022/07/31 00:30:59;;;;;;;2.30;2.20;;;;;;;25.04;63.64;97707.47;5049241;28;20255;-32
2022/07/31 00:33:26;;;;;;;2.40;2.30;;;;;;;25.06;63.87;97715.22;5049949;28;20260;-31
2022/07/31 00:35:52;;;;;;;3.03;2.53;;;;;;;25.06;63.76;97710.06;5049308;28;20211;-31
2022/07/31 00:38:19;;;;;;;2.43;2.30;;;;;;;25.05;63.47;97710.91;5049969;28;20243;-31
2022/07/31 00:40:53;;;;;;;2.90;2.70;;;;;;;25.04;63.92;97698.88;5051652;28;20314;-31
2022/07/31 00:43:20;;;;;;;2.37;2.27;;;;;;;25.05;63.81;97705.78;5054832;28;20309;-31
2022/07/31 00:45:46;;;;;;;2.60;2.40;;;;;;;25.03;63.75;97699.72;5048703;28;20244;-31
2022/07/31 00:48:24;;;;;;;2.43;2.23;;;;;;;25.03;63.44;97698.03;5051975;28;20224;-31
2022/07/31 00:50:50;;;;;;;2.50;2.30;;;;;;;25.04;63.77;97702.31;5051757;28;20712;-31
2022/07/31 00:53:17;;;;;;;2.80;2.60;;;;;;;25.00;63.27;97694.53;5059299;28;20231;-31
2022/07/31 00:55:44;;;;;;;2.70;2.50;;;;;;;25.03;63.95;97695.47;5035266;28;20208;-31
2022/07/31 00:58:17;;;;;;;2.30;2.20;;;;;;;25.04;63.78;97701.44;5050209;28;20219;-31
2022/07/31 01:00:44;;;;;;;2.20;2.10;;;;;;;25.04;63.59;97712.59;5048234;28;20335;-31
2022/07/31 01:03:10;;;;;;;2.60;2.40;;;;;;;25.04;63.40;97715.19;5047672;28;20530;-31
2022/07/31 01:05:37;;;;;;;2.70;2.50;;;;;;;24.99;63.91;97700.50;5048253;28;20639;-31
2022/07/31 01:08:04;;;;;;;2.47;2.23;;;;;;;25.03;63.99;97708.31;5048506;28;20287;-31
2022/07/31 01:10:51;;;;;;;2.40;2.20;;;;;;;25.04;64.02;97716.88;5048791;28;20307;-31
2022/07/31 01:13:23;;;;;;;2.20;2.10;;;;;;;24.91;63.85;97690.09;5014849;28;20295;-31
2022/07/31 01:15:49;;;;;;;2.60;2.40;;;;;;;25.04;63.85;97710.03;5035987;28;20721;-31
2022/07/31 01:18:16;;;;;;;2.40;2.20;;;;;;;25.03;64.00;97708.31;5020740;28;20201;-31
2022/07/31 01:20:43;;;;;;;2.43;2.30;;;;;;;25.03;63.92;97704.88;5051228;28;20667;-31
2022/07/31 01:23:15;;;;;;;2.50;2.30;;;;;;;25.03;63.77;97710.00;5019923;28;20228;-31
2022/07/31 01:25:45;;;;;;;2.47;2.37;;;;;;;25.03;63.89;97710.00;5050910;28;20231;-31
2022/07/31 01:28:21;;;;;;;2.30;2.20;;;;;;;25.03;64.03;97707.44;5041329;28;20307;-31
2022/07/31 01:30:55;;;;;;;2.30;2.20;;;;;;;25.03;63.66;97712.56;5055333;28;20251;-31
2022/07/31 01:33:47;;;;;;;2.40;2.30;;;;;;;25.03;64.05;97717.72;5036532;28;20207;-31
2022/07/31 01:36:16;;;;;;;2.30;2.13;;;;;;;25.02;64.00;97709.13;5037082;28;20798;-31
2022/07/31 01:38:44;;;;;;;2.60;2.30;;;;;;;24.95;63.92;97697.00;5030787;28;20292;-31
2022/07/31 01:41:12;;;;;;;2.50;2.30;;;;;;;25.03;63.88;97708.31;5014897;28;20248;-31
2022/07/31 01:43:39;;;;;;;2.40;2.20;;;;;;;25.03;63.72;97712.56;5013190;28;20285;-31
2022/07/31 01:46:08;;;;;;;2.83;2.63;;;;;;;25.03;64.04;97715.16;5051700;28;20237;-31
2022/07/31 01:48:34;;;;;;;2.17;2.07;;;;;;;25.03;64.13;97715.16;5019366;28;20802;-31
2022/07/31 01:51:01;;;;;;;2.60;2.33;;;;;;;25.02;63.83;97716.84;4993948;28;1160804;-31
2022/07/31 01:53:30;;;;;;;2.20;2.10;;;;;;;25.03;63.94;97704.88;5034192;28;20207;-31
2022/07/31 01:55:57;;;;;;;2.30;2.20;;;;;;;25.03;64.00;97710.00;5055779;28;20299;-31
2022/07/31 01:58:32;;;;;;;2.17;2.07;;;;;;;24.91;63.90;97697.81;5047927;28;20201;-31
2022/07/31 02:00:59;;;;;;;2.53;2.37;;;;;;;25.03;63.69;97720.28;5036984;28;20752;-31
2022/07/31 02:03:29;;;;;;;3.60;2.33;;;;;;;25.02;63.67;97711.69;5037024;28;20196;-31
2022/07/31 02:06:15;;;;;;;2.50;2.30;;;;;;;25.02;63.67;97711.69;5037153;28;20235;-31
2022/07/31 02:08:44;;;;;;;2.47;2.33;;;;;;;25.02;63.99;97714.28;5024001;28;20307;-31
2022/07/31 02:11:12;;;;;;;2.27;2.17;;;;;;;25.02;64.03;97723.72;5035074;28;20252;-31
2022/07/31 02:13:39;;;;;;;2.27;2.17;;;;;;;24.99;64.14;97711.66;5042793;28;20201;-31
2022/07/31 02:16:06;;;;;;;2.70;2.50;;;;;;;25.01;64.11;97719.38;5030974;28;20282;-31
2022/07/31 02:18:33;;;;;;;2.20;2.10;;;;;;;25.02;64.12;97719.41;5052877;28;20288;-31
2022/07/31 02:20:59;;;;;;;2.90;2.43;;;;;;;25.00;63.61;97720.25;5036960;28;20259;-31
2022/07/31 02:23:26;;;;;;;2.37;2.27;;;;;;;25.02;63.67;97722.00;5018069;28;20240;-31
2022/07/31 02:25:52;;;;;;;2.60;2.40;;;;;;;24.93;64.04;97708.97;5017267;28;20288;-31
2022/07/31 02:28:19;;;;;;;2.47;2.30;;;;;;;24.98;63.67;97719.34;5019127;28;20317;-31
2022/07/31 02:30:46;;;;;;;2.60;2.40;;;;;;;24.97;63.70;97699.59;5023644;28;20300;-31
2022/07/31 02:33:15;;;;;;;2.10;2.00;;;;;;;24.97;63.75;97704.75;5022616;28;20664;-31
2022/07/31 02:35:44;;;;;;;2.27;2.07;;;;;;;25.00;63.98;97721.13;5018212;28;20241;-31
2022/07/31 02:38:11;;;;;;;2.23;2.10;;;;;;;25.00;63.91;97710.84;5055623;28;20223;-31
2022/07/31 02:40:49;;;;;;;2.60;2.40;;;;;;;25.01;63.67;97722.84;5041860;28;20793;-31
2022/07/31 02:43:16;;;;;;;2.20;2.10;;;;;;;24.96;63.76;97709.03;5057812;28;20232;-31
2022/07/31 02:45:42;;;;;;;2.33;2.13;;;;;;;25.01;63.62;97717.69;5033840;28;20248;-31
2022/07/31 02:48:09;;;;;;;2.10;2.00;;;;;;;25.01;64.04;97720.28;5060990;28;20639;-31
2022/07/31 02:50:36;;;;;;;2.40;2.20;;;;;;;25.02;64.02;97723.72;5034756;28;20323;-30
2022/07/31 02:53:03;;;;;;;2.53;2.33;;;;;;;24.99;63.57;97719.34;5038591;28;20240;-31
2022/07/31 02:55:29;;;;;;;2.23;2.13;;;;;;;25.03;63.67;97717.72;5030760;28;20205;-30
2022/07/31 02:57:56;;;;;;;2.20;2.10;;;;;;;25.03;63.94;97713.47;5034058;28;20249;-30
2022/07/31 03:00:25;;;;;;;2.30;2.20;;;;;;;25.03;64.00;97716.03;5032318;28;20270;-31
2022/07/31 03:02:53;;;;;;;2.20;2.10;;;;;;;25.03;63.60;97708.31;5055372;28;20229;-31
2022/07/31 03:05:20;;;;;;;2.50;2.30;;;;;;;25.03;63.58;97710.88;5051975;28;20645;-30
2022/07/31 03:07:46;;;;;;;2.30;2.20;;;;;;;25.02;64.05;97709.13;5050580;28;20325;-30
2022/07/31 03:10:13;;;;;;;2.30;2.20;;;;;;;24.97;63.93;97702.19;5067931;28;20259;-31
2022/07/31 03:12:41;;;;;;;2.60;2.40;;;;;;;25.02;63.88;97703.16;5060770;28;20247;-31
2022/07/31 03:15:09;;;;;;;2.57;2.40;;;;;;;25.02;64.03;97711.69;5004552;28;20240;-30
2022/07/31 03:17:36;;;;;;;2.47;2.30;;;;;;;25.02;63.99;97711.69;5028227;28;20205;-30
2022/07/31 03:20:08;;;;;;;2.40;2.20;;;;;;;25.00;64.07;97707.38;5026034;28;20778;-30
2022/07/31 03:22:34;;;;;;;2.23;2.13;;;;;;;25.03;64.09;97715.16;5040320;28;20607;-31
2022/07/31 03:25:02;;;;;;;2.23;2.13;;;;;;;25.02;63.71;97708.28;5050146;28;20240;-30
2022/07/31 03:27:29;;;;;;;2.37;2.27;;;;;;;25.02;63.65;97706.56;5037793;28;20259;-30
2022/07/31 03:29:55;;;;;;;2.33;2.13;;;;;;;25.02;63.61;97706.56;5050758;28;20308;-30
2022/07/31 03:32:22;;;;;;;2.50;2.30;;;;;;;25.02;64.11;97706.56;5049194;28;20252;-30
2022/07/31 03:34:49;;;;;;;2.60;2.40;;;;;;;25.00;63.65;97703.13;5056334;28;20236;-31
2022/07/31 03:37:15;;;;;;;2.30;2.20;;;;;;;25.02;64.07;97716.00;5049961;28;20288;-30
2022/07/31 03:39:42;;;;;;;2.43;2.27;;;;;;;24.96;64.05;97714.16;5051968;28;20274;-31
2022/07/31 03:42:08;;;;;;;2.73;2.53;;;;;;;25.02;63.77;97713.44;5038900;28;20205;-30
2022/07/31 03:44:44;;;;;;;2.50;2.30;;;;;;;25.02;63.62;97710.84;5039737;28;20581;-30
2022/07/31 03:47:11;;;;;;;2.50;2.30;;;;;;;24.97;63.87;97704.75;5022999;28;20239;-30
2022/07/31 03:49:37;;;;;;;2.47;2.27;;;;;;;25.01;63.90;97714.25;5016329;28;20260;-30
2022/07/31 03:52:04;;;;;;;2.33;2.20;;;;;;;25.01;63.80;97715.13;5038202;28;20667;-30
2022/07/31 03:54:37;;;;;;;2.60;2.40;;;;;;;24.95;63.87;97694.44;5052086;28;20231;-30
2022/07/31 03:57:03;;;;;;;2.50;2.30;;;;;;;24.97;63.54;97705.63;5031219;28;20244;-30
2022/07/31 03:59:30;;;;;;;2.60;2.40;;;;;;;25.01;63.67;97707.41;5016078;28;20256;-30
2022/07/31 04:02:06;;;;;;;2.50;2.30;;;;;;;24.91;63.76;97692.66;5025549;28;20270;-31
2022/07/31 04:04:36;;;;;;;2.70;2.50;;;;;;;25.02;63.92;97710.84;5031365;28;20204;-30
2022/07/31 04:07:03;;;;;;;2.47;2.30;;;;;;;25.00;64.04;97703.13;5048687;28;20201;-31
2022/07/31 04:09:30;;;;;;;2.30;2.20;;;;;;;25.01;63.66;97704.84;5054402;28;20331;-30
2022/07/31 04:11:57;;;;;;;2.40;2.30;;;;;;;25.01;63.65;97712.56;5030737;28;20327;-31
2022/07/31 04:14:23;;;;;;;2.30;2.10;;;;;;;24.99;63.64;97703.09;5050242;28;20647;-30
2022/07/31 04:16:50;;;;;;;2.20;2.10;;;;;;;24.95;64.10;97703.84;5052350;28;20303;-30
2022/07/31 04:19:17;;;;;;;2.30;2.20;;;;;;;25.01;63.94;97704.84;5056330;28;20259;-31
2022/07/31 04:21:43;;;;;;;2.30;2.20;;;;;;;25.01;64.14;97706.53;5033177;28;20201;-30
2022/07/31 04:24:12;;;;;;;2.33;2.13;;;;;;;24.99;63.69;97701.34;5053992;28;20307;-31
2022/07/31 04:26:39;;;;;;;2.60;2.43;;;;;;;25.01;63.80;97715.13;5050860;28;20624;-30
2022/07/31 04:29:05;;;;;;;2.50;2.30;;;;;;;24.98;63.86;97704.78;5029982;28;20307;-30
2022/07/31 04:31:32;;;;;;;2.30;2.20;;;;;;;25.01;64.17;97720.28;5053396;28;20240;-31
2022/07/31 04:33:58;;;;;;;2.63;2.40;;;;;;;24.98;64.24;97709.03;5048743;28;20935;-30
2022/07/31 04:36:25;;;;;;;2.50;2.40;;;;;;;24.99;64.10;97715.94;5047877;28;20702;-30
2022/07/31 04:38:56;;;;;;;2.20;2.10;;;;;;;25.01;64.12;97727.09;5047910;28;20385;-31
2022/07/31 04:41:23;;;;;;;2.47;2.30;;;;;;;25.00;63.97;97726.25;5048310;28;20228;-30
2022/07/31 04:43:49;;;;;;;2.13;2.03;;;;;;;25.00;63.74;97722.81;5048503;28;20204;-30
2022/07/31 04:46:16;;;;;;;2.63;2.43;;;;;;;24.96;63.97;97711.59;5048135;28;20740;-30
2022/07/31 04:48:43;;;;;;;2.33;2.13;;;;;;;24.99;63.86;97721.09;5048346;28;20221;-30
2022/07/31 04:51:20;;;;;;;2.43;2.33;;;;;;;24.99;63.96;97721.94;5047879;28;21047;-30
2022/07/31 04:53:48;;;;;;;2.50;2.30;;;;;;;24.99;63.73;97716.78;5048364;28;20263;-31
2022/07/31 04:59:04;;;;;;;2.30;2.20;;;;;;;25.00;63.84;97723.69;5055854;28;20258;-31
2022/07/31 05:01:31;;;;;;;2.23;2.13;;;;;;;25.00;63.74;97728.84;5047800;28;20344;-30
2022/07/31 05:03:58;;;;;;;2.43;2.33;;;;;;;25.00;63.95;97717.66;5047324;28;20207;-31
2022/07/31 05:06:36;;;;;;;2.10;2.00;;;;;;;25.00;63.93;97718.53;5054066;28;20236;-31
2022/07/31 05:09:04;;;;;;;2.23;2.03;;;;;;;25.00;63.69;97721.13;5047147;28;20231;-30
2022/07/31 05:11:36;;;;;;;2.20;2.10;;;;;;;25.01;64.13;97717.69;5047695;28;20197;-31
2022/07/31 05:14:04;;;;;;;2.20;2.10;;;;;;;25.01;63.87;97720.28;5055267;28;20744;-31
2022/07/31 05:16:30;;;;;;;2.93;2.40;;;;;;;25.01;63.91;97722.84;5048300;28;20652;-31
2022/07/31 05:18:57;;;;;;;4.03;2.10;;;;;;;25.01;63.86;97725.41;5050052;28;20291;-31
2022/07/31 05:21:25;;;;;;;2.70;2.50;;;;;;;25.01;64.14;97722.84;5050629;28;20264;-31
2022/07/31 05:23:53;;;;;;;3.30;3.00;;;;;;;25.01;63.30;97722.84;5048470;28;20633;-31
2022/07/31 05:26:19;;;;;;;5.63;4.20;;;;;;;25.02;63.09;97718.56;5044869;28;20655;-31
2022/07/31 05:28:48;;;;;;;5.10;4.60;;;;;;;24.98;62.14;97715.06;5037639;28;20673;-31
2022/07/31 05:31:15;;;;;;;5.57;4.77;;;;;;;25.01;62.12;97720.28;5045545;28;20260;-31
2022/07/31 05:33:42;;;;;;;6.60;5.00;;;;;;;24.98;62.19;97707.34;5048021;28;20207;-30
2022/07/31 05:36:08;;;;;;;9.50;6.00;;;;;;;25.00;61.88;97715.97;5047614;28;20205;-31
2022/07/31 05:38:35;;;;;;;5.80;5.20;;;;;;;24.99;62.05;97716.78;5048267;28;20292;-31
2022/07/31 05:41:01;;;;;;;6.37;5.70;;;;;;;25.01;61.94;97715.13;5053779;28;20490;-31
2022/07/31 05:43:28;;;;;;;7.23;5.70;;;;;;;25.01;61.24;97716.81;5029798;28;20315;-30
2022/07/31 05:45:55;;;;;;;6.13;5.53;;;;;;;24.99;61.40;97706.50;5047321;28;20232;-31
2022/07/31 05:48:22;;;;;;;6.40;5.70;;;;;;;25.00;61.31;97715.09;5047366;28;20307;-31
2022/07/31 05:50:49;;;;;;;7.37;5.97;;;;;;;24.99;61.53;97715.94;5047343;28;20264;-30
2022/07/31 05:53:15;;;;;;;6.50;5.90;;;;;;;24.97;61.28;97723.63;5047161;28;20288;-31
2022/07/31 05:55:45;;;;;;;6.27;5.53;;;;;;;24.96;61.70;97718.47;5046691;28;20229;-31
2022/07/31 05:58:12;;;;;;;6.33;5.73;;;;;;;24.98;61.67;97729.63;5038375;28;20293;-30
2022/07/31 06:00:43;;;;;;;6.90;5.53;;;;;;;24.98;61.50;97725.34;5051585;28;20260;-31
2022/07/31 06:03:11;;;;;;;7.77;5.93;;;;;;;24.90;61.26;97729.47;5051894;28;20875;-30
2022/07/31 06:05:38;;;;;;;6.90;5.60;;;;;;;24.96;61.43;97729.59;5027907;28;20680;-30
2022/07/31 06:08:05;;;;;;;6.33;5.73;;;;;;;24.97;61.42;97730.47;5047151;28;20256;-30
2022/07/31 06:10:34;;;;;;;8.07;5.97;;;;;;;24.98;61.12;97738.22;5046775;28;20225;-31
2022/07/31 06:13:01;;;;;;;8.13;5.73;;;;;;;24.96;61.37;97737.31;5053342;28;20236;-31
2022/07/31 06:15:28;;;;;;;7.40;5.40;;;;;;;24.97;61.69;97740.75;5047754;28;20284;-30
2022/07/31 06:18:01;;;;;;;6.50;5.60;;;;;;;24.95;61.94;97743.28;5047849;28;20200;-31
2022/07/31 06:20:27;;;;;;;7.23;5.87;;;;;;;24.93;61.66;97739.81;5055257;28;20233;-31
2022/07/31 06:22:54;;;;;;;8.73;6.40;;;;;;;24.93;61.79;97750.09;5053302;28;20614;-31
2022/07/31 06:25:21;;;;;;;7.47;6.10;;;;;;;24.92;62.37;97737.22;5053561;28;20293;-31
2022/07/31 06:27:47;;;;;;;9.50;5.93;;;;;;;24.90;61.96;97734.63;5046927;28;20321;-31
2022/07/31 06:30:24;;;;;;;6.97;5.57;;;;;;;24.92;62.01;97739.78;5048180;28;20224;-31
2022/07/31 06:32:51;;;;;;;6.30;5.70;;;;;;;24.91;62.51;97736.38;5046610;28;20197;-31
2022/07/31 06:35:17;;;;;;;5.80;5.30;;;;;;;24.89;61.94;97737.16;5047750;28;20766;-30
2022/07/31 06:37:44;;;;;;;6.53;5.87;;;;;;;24.30;61.74;97640.88;5049487;28;20288;-31
2022/07/31 06:40:11;;;;;;;8.37;6.53;;;;;;;24.92;62.24;97748.38;5050070;28;20863;-31
2022/07/31 06:42:38;;;;;;;7.00;5.83;;;;;;;24.92;61.69;97742.34;5050005;28;20295;-30
2022/07/31 06:45:05;;;;;;;6.50;5.87;;;;;;;24.90;62.03;97746.63;5050286;28;20621;-30
2022/07/31 06:47:31;;;;;;;8.27;6.20;;;;;;;24.92;61.91;97739.78;5050426;28;20236;-30
2022/07/31 06:49:58;;;;;;;6.70;6.10;;;;;;;24.91;62.37;97749.22;5050037;28;20267;-30
2022/07/31 06:52:24;;;;;;;7.63;5.90;;;;;;;24.91;61.95;97746.66;5032554;28;20242;-31
2022/07/31 06:54:51;;;;;;;7.73;6.10;;;;;;;24.91;62.05;97749.22;5050709;28;20710;-30
2022/07/31 06:57:17;;;;;;;6.60;5.73;;;;;;;24.91;61.82;97746.66;5050498;28;20233;-30
2022/07/31 06:59:44;;;;;;;5.90;5.30;;;;;;;24.91;61.76;97743.22;5049392;28;20781;-31
2022/07/31 07:02:11;;;;;;;5.97;5.37;;;;;;;24.90;62.21;97742.31;5048415;28;20766;-30
2022/07/31 07:04:37;;;;;;;6.67;5.97;;;;;;;24.91;62.45;97748.34;5050190;28;20315;-31
2022/07/31 07:07:24;;;;;;;6.70;5.63;;;;;;;24.91;62.38;97740.63;5050142;28;20702;-30
2022/07/31 07:09:57;;;;;;;5.27;4.77;;;;;;;24.90;62.54;97744.06;5050440;28;20643;-30
2022/07/31 07:12:24;;;;;;;5.80;5.20;;;;;;;24.90;62.45;97749.19;5049288;28;20654;-31
2022/07/31 07:14:52;;;;;;;9.47;5.67;;;;;;;24.88;62.67;97748.28;5050551;28;20567;-31
2022/07/31 07:17:18;;;;;;;10.00;5.83;;;;;;;24.91;62.49;97753.50;5049481;28;20316;-30
2022/07/31 07:19:45;;;;;;;5.80;5.30;;;;;;;24.91;62.61;97754.38;5049641;28;20266;-30
2022/07/31 07:22:20;;;;;;;5.60;5.10;;;;;;;24.91;62.36;97750.91;5044714;28;20232;-30
2022/07/31 07:24:58;;;;;;;5.43;4.93;;;;;;;24.91;62.70;97749.22;5046403;28;20205;-31
2022/07/31 07:27:25;;;;;;;5.80;4.90;;;;;;;24.86;62.35;97737.09;5049666;28;20209;-31
2022/07/31 07:29:51;;;;;;;6.50;5.30;;;;;;;24.91;62.27;97746.66;5033141;28;20260;-30
2022/07/31 07:32:18;;;;;;;6.60;4.83;;;;;;;24.90;62.97;97747.47;5015056;28;20301;-30
2022/07/31 07:34:44;;;;;;;5.97;5.37;;;;;;;24.92;62.27;97750.94;5047822;28;20883;-30
2022/07/31 07:37:11;;;;;;;5.77;5.27;;;;;;;24.91;62.24;97746.66;5051352;28;20287;-31
2022/07/31 07:39:38;;;;;;;6.90;5.40;;;;;;;24.92;62.03;97750.06;5053390;28;20312;-30
2022/07/31 07:42:04;;;;;;;6.97;5.70;;;;;;;24.91;62.17;97746.66;5049531;28;20243;-30
2022/07/31 07:44:31;;;;;;;5.80;5.00;;;;;;;24.91;62.19;97741.50;5056041;28;20250;-31
2022/07/31 07:46:58;;;;;;;6.00;5.33;;;;;;;24.92;62.46;97747.50;5049626;28;20671;-31
2022/07/31 07:49:24;;;;;;;7.07;5.10;;;;;;;24.91;62.43;97738.94;5034206;28;20438;-30
2022/07/31 07:51:51;;;;;;;5.33;4.87;;;;;;;24.91;62.52;97736.38;5050160;28;20259;-31
2022/07/31 07:54:25;;;;;;;5.43;4.97;;;;;;;24.91;62.23;97741.50;5048995;28;20300;-31
2022/07/31 07:56:53;;;;;;;6.17;5.47;;;;;;;24.91;62.78;97733.81;5046363;28;20243;-31
2022/07/31 07:59:20;;;;;;;5.87;5.07;;;;;;;24.91;62.82;97730.34;5049521;28;20285;-31
2022/07/31 08:01:47;;;;;;;5.90;4.87;;;;;;;24.91;62.65;97726.09;5048960;28;20250;-31
2022/07/31 08:04:13;;;;;;;5.37;4.90;;;;;;;24.90;62.48;97724.34;5048548;28;20201;-31
2022/07/31 08:06:40;;;;;;;7.07;4.63;;;;;;;24.91;62.73;97731.22;5048426;28;20300;-30
2022/07/31 08:09:06;;;;;;;5.80;5.20;;;;;;;24.91;63.07;97720.94;5048960;28;20259;-31
2022/07/31 08:11:33;;;;;;;5.90;4.97;;;;;;;24.91;62.69;97713.22;5009312;28;20202;-30
2022/07/31 08:13:59;;;;;;;6.47;4.70;;;;;;;24.92;63.01;97711.50;5029897;28;20312;-30
2022/07/31 08:16:26;;;;;;;8.60;5.00;;;;;;;24.91;62.69;97715.81;5048637;28;20232;-30
2022/07/31 08:18:53;;;;;;;6.43;4.70;;;;;;;24.89;63.05;97706.31;5048464;28;20763;-31
2022/07/31 08:21:20;;;;;;;5.00;4.37;;;;;;;24.93;63.06;97714.09;5048395;28;20271;-31
2022/07/31 08:23:47;;;;;;;6.20;5.23;;;;;;;24.93;62.83;97711.53;5048290;28;20710;-31
2022/07/31 08:26:13;;;;;;;5.90;5.07;;;;;;;24.93;63.07;97718.41;5048212;28;20329;-30
2022/07/31 08:28:40;;;;;;;5.20;4.70;;;;;;;24.95;62.79;97714.13;5047341;28;20307;-30
2022/07/31 08:31:15;;;;;;;4.83;4.43;;;;;;;24.94;63.00;97709.84;5031716;28;20311;-31
2022/07/31 08:33:42;;;;;;;5.83;5.23;;;;;;;24.93;62.71;97711.53;5030130;28;20234;-30
2022/07/31 08:36:08;;;;;;;6.27;5.20;;;;;;;24.94;62.80;97712.41;5047984;28;20289;-31
2022/07/31 08:38:35;;;;;;;5.07;4.57;;;;;;;24.95;62.77;97714.13;5048495;28;20295;-31
2022/07/31 08:41:02;;;;;;;5.87;4.37;;;;;;;24.94;63.02;97704.69;5048425;28;20666;-31
2022/07/31 08:43:29;;;;;;;5.77;5.17;;;;;;;24.95;63.13;97704.72;5047598;28;20238;-31
2022/07/31 08:46:16;;;;;;;4.70;4.30;;;;;;;24.96;62.84;97697.88;5042183;28;20587;-30
2022/07/31 08:48:42;;;;;;;5.20;4.50;;;;;;;24.97;63.07;97704.75;5047967;28;20271;-31
2022/07/31 08:51:12;;;;;;;5.90;4.70;;;;;;;24.97;62.67;97700.50;5048407;28;20257;-30
2022/07/31 08:53:39;;;;;;;6.90;4.70;;;;;;;24.90;63.07;97687.50;5029161;28;20204;-30
2022/07/31 08:56:06;;;;;;;5.13;4.37;;;;;;;24.98;62.60;97693.63;5012366;28;20297;-30
2022/07/31 08:58:33;;;;;;;5.07;4.57;;;;;;;24.95;63.07;97686.72;5030127;28;20660;-31
2022/07/31 09:01:05;;;;;;;4.97;4.57;;;;;;;24.99;62.79;97693.66;5047133;28;20313;-31
2022/07/31 09:03:33;;;;;;;5.33;4.67;;;;;;;24.99;62.71;97683.34;5039062;28;20201;-31
2022/07/31 09:06:00;;;;;;;6.53;5.07;;;;;;;24.99;62.64;97680.78;5012864;28;20251;-30
2022/07/31 09:08:26;;;;;;;5.43;4.93;;;;;;;24.99;62.71;97680.78;5032724;28;20212;-31
2022/07/31 09:11:06;;;;;;;4.70;4.30;;;;;;;25.00;62.51;97686.81;5042069;28;20931;-31
2022/07/31 09:13:35;;;;;;;5.33;4.83;;;;;;;25.00;62.53;97682.53;5043873;28;20794;-31
2022/07/31 09:16:02;;;;;;;5.30;4.70;;;;;;;25.01;62.43;97678.25;5045757;28;20303;-31
2022/07/31 09:18:29;;;;;;;5.50;4.90;;;;;;;24.96;62.36;97672.19;5043916;28;20239;-31
2022/07/31 09:21:00;;;;;;;5.27;4.77;;;;;;;25.01;62.39;97679.13;5028920;28;20697;-31
2022/07/31 09:23:27;;;;;;;5.43;4.93;;;;;;;25.01;62.70;97673.09;5046947;28;20236;-30
2022/07/31 09:25:58;;;;;;;5.10;4.37;;;;;;;25.01;62.56;97678.25;5046799;28;20296;-30
2022/07/31 09:28:31;;;;;;;4.90;4.50;;;;;;;25.01;62.30;97673.97;5050929;28;20689;-30
2022/07/31 09:30:58;;;;;;;5.07;4.57;;;;;;;25.01;62.49;97673.97;5053169;28;20262;-31
2022/07/31 09:33:26;;;;;;;6.07;4.47;;;;;;;25.01;62.14;97667.97;5051314;28;20210;-30
2022/07/31 09:35:53;;;;;;;5.03;4.57;;;;;;;25.01;62.13;97666.25;5050903;28;20259;-31
2022/07/31 09:38:20;;;;;;;5.10;4.60;;;;;;;24.91;62.08;97648.94;5045112;28;20264;-30
2022/07/31 09:40:46;;;;;;;5.30;4.70;;;;;;;25.02;61.87;97655.13;5026213;28;20243;-31
2022/07/31 09:43:23;;;;;;;5.00;4.53;;;;;;;25.02;62.33;97649.97;5033007;28;20207;-31
2022/07/31 09:45:58;;;;;;;6.63;4.37;;;;;;;25.02;62.05;97644.84;5025496;28;20211;-31
2022/07/31 09:48:25;;;;;;;5.30;4.20;;;;;;;25.03;61.40;97648.28;5044708;28;20255;-30
2022/07/31 09:51:02;;;;;;;4.90;4.40;;;;;;;25.02;60.70;97649.97;5043089;28;20278;-30
2022/07/31 09:53:45;;;;;;;4.90;4.40;;;;;;;25.04;60.18;97650.88;5041482;28;20286;-31
2022/07/31 09:56:13;;;;;;;6.47;4.60;;;;;;;24.96;60.63;97626.75;5043135;28;20307;-31
2022/07/31 09:58:41;;;;;;;4.60;4.20;;;;;;;25.05;60.58;97654.34;5026409;28;20296;-31
2022/07/31 10:01:11;;;;;;;6.37;4.70;;;;;;;25.06;60.69;97638.94;5043872;28;20617;-31
2022/07/31 10:03:38;;;;;;;4.80;4.40;;;;;;;25.03;60.66;97633.75;5043718;28;20605;-30
2022/07/31 10:06:05;;;;;;;4.50;4.10;;;;;;;25.06;60.74;97633.78;5044009;28;20211;-30
2022/07/31 10:08:36;;;;;;;5.70;4.63;;;;;;;25.07;60.74;97647.50;5014751;28;20699;-30
2022/07/31 10:11:03;;;;;;;4.70;4.30;;;;;;;25.07;60.65;97632.94;5041921;28;20232;-30
2022/07/31 10:13:29;;;;;;;4.43;4.03;;;;;;;25.07;60.89;97609.78;5027725;28;20295;-30
2022/07/31 10:15:56;;;;;;;5.80;4.13;;;;;;;25.05;60.57;97613.19;5028075;28;20204;-31
2022/07/31 10:18:23;;;;;;;4.67;4.10;;;;;;;25.08;60.55;97608.09;5025688;28;20303;-31
2022/07/31 10:21:04;;;;;;;5.07;4.10;;;;;;;25.07;60.92;97620.09;5045475;28;20792;-30
2022/07/31 10:23:32;;;;;;;5.30;4.03;;;;;;;25.07;60.62;97611.50;5029085;28;20326;-30
2022/07/31 10:26:00;;;;;;;4.37;3.97;;;;;;;25.07;60.73;97614.94;5044213;28;20722;-30
2022/07/31 10:28:30;;;;;;;7.60;4.20;;;;;;;25.07;60.70;97606.34;5046891;28;20300;-30
2022/07/31 10:30:56;;;;;;;4.10;3.70;;;;;;;25.08;60.26;97618.38;5044213;28;20926;-31
2022/07/31 10:33:25;;;;;;;6.37;3.93;;;;;;;25.01;60.37;97603.66;5047703;28;20208;-31
2022/07/31 10:36:33;;;;;;;4.13;3.73;;;;;;;25.08;60.25;97608.94;5046580;28;20201;-31
2022/07/31 10:39:13;;;;;;;8.30;4.40;;;;;;;25.08;60.17;97603.78;5027848;28;20304;-30
2022/07/31 10:42:03;;;;;;;4.53;4.13;;;;;;;25.08;60.19;97603.78;5028253;28;20224;-30
2022/07/31 10:44:44;;;;;;;4.97;4.27;;;;;;;24.98;60.33;97583.03;5027723;28;20653;-31
2022/07/31 10:47:14;;;;;;;7.90;4.30;;;;;;;25.08;60.27;97598.66;5032529;28;20232;-31
2022/07/31 10:49:47;;;;;;;6.87;4.00;;;;;;;25.08;60.61;97603.78;5049038;28;20323;-31
2022/07/31 10:52:30;;;;;;;4.63;3.93;;;;;;;25.08;60.77;97598.66;5051271;28;20197;-31
2022/07/31 10:54:57;;;;;;;5.80;3.80;;;;;;;25.07;60.24;97598.63;5049055;28;20299;-30
2022/07/31 10:57:28;;;;;;;6.13;4.07;;;;;;;25.07;60.26;97598.63;5050235;28;20588;-31
2022/07/31 10:59:54;;;;;;;4.77;4.27;;;;;;;25.06;60.81;97592.63;5050190;28;20690;-31
2022/07/31 11:02:34;;;;;;;5.17;4.40;;;;;;;25.06;61.12;97584.06;5049786;28;20232;-31
2022/07/31 11:05:06;;;;;;;8.13;4.70;;;;;;;25.06;61.22;97586.63;5050154;28;20236;-30
2022/07/31 11:07:33;;;;;;;10.07;4.27;;;;;;;25.01;61.28;97575.38;5049565;28;20296;-30
2022/07/31 11:10:16;;;;;;;10.07;5.10;;;;;;;25.06;61.26;97579.78;5031795;28;20233;-30
2022/07/31 11:12:42;;;;;;;6.73;4.47;;;;;;;25.07;60.95;97585.78;5047108;28;20231;-30
2022/07/31 11:15:22;;;;;;;14.27;5.40;;;;;;;25.07;61.32;97578.94;5050142;28;20240;-30
2022/07/31 11:17:49;;;;;;;19.33;7.87;;;;;;;25.08;61.17;97582.38;5049343;28;20747;-31
2022/07/31 11:20:35;;;;;;;19.93;10.47;;;;;;;25.09;61.25;97582.41;5049365;28;20221;-31
2022/07/31 11:23:04;;;;;;;33.70;13.40;;;;;;;25.09;61.07;97577.25;5049648;28;20232;-31
2022/07/31 11:25:32;;;;;;;35.17;15.10;;;;;;;25.07;61.28;97581.50;5049281;28;20201;-30
2022/07/31 11:28:13;;;;;;;49.30;19.43;;;;;;;25.10;61.11;97585.81;5031694;28;20689;-30
2022/07/31 11:30:59;;;;;;;59.17;21.07;;;;;;;25.10;61.48;97572.97;5054252;28;20255;-30
2022/07/31 11:33:40;;;;;;;57.97;22.27;;;;;;;25.11;61.47;97577.28;5051447;28;20236;-30
2022/07/31 11:36:08;;;;;;;58.43;22.57;;;;;;;25.11;61.09;97575.56;5045705;28;20278;-31
2022/07/31 11:38:35;;;;;;;55.87;22.40;;;;;;;25.11;61.44;97574.72;5052704;28;20236;-31
2022/07/31 11:41:04;;;;;;;52.07;20.10;;;;;;;25.09;61.30;97582.41;5048694;28;20307;-31
2022/07/31 11:43:33;;;;;;;48.07;19.40;;;;;;;25.03;61.37;97563.44;5048921;28;20204;-30